Time;durP1;ratioP1;P1;durP2;ratioP2;P2;SDS_P1;SDS_P2;PMS_P1;PMS_P2;Temp;Humidity;BMP_temperature;BMP_pressure;BME280_temperature;BME280_humidity;BME280_pressure;Samples;Min_cycle;Max_cycle;Signal;HPM_P1;HPM_P2
2022/06/06 00:02:16;;;;;;;;;6.25;6.25;;;;;19.78;100.00;101441.19;5015022;28;45398;-80
2022/06/06 00:04:42;;;;;;;;;5.75;5.75;;;;;19.74;100.00;101434.09;5016941;28;45371;-79
2022/06/06 00:07:08;;;;;;;;;7.75;6.00;;;;;19.73;100.00;101436.72;5056877;28;45648;-79
2022/06/06 00:09:34;;;;;;;;;6.75;6.75;;;;;19.72;100.00;101440.19;5056148;28;46262;-79
2022/06/06 00:12:02;;;;;;;;;7.75;5.50;;;;;19.71;100.00;101438.44;5056422;28;46607;-80
2022/06/06 00:14:28;;;;;;;;;6.75;5.75;;;;;19.65;100.00;101447.09;5056349;28;45423;-79
2022/06/06 00:16:54;;;;;;;;;5.75;5.75;;;;;19.64;100.00;101447.94;5038320;28;45386;-80
2022/06/06 00:19:20;;;;;;;;;6.00;6.00;;;;;19.58;100.00;101447.84;5058166;28;45344;-78
2022/06/06 00:21:47;;;;;;;;;10.00;8.50;;;;;19.61;100.00;101451.41;5076822;28;45330;-80
2022/06/06 00:24:13;;;;;;;;;8.25;5.75;;;;;19.57;100.00;101443.44;5076899;27;45310;-79
2022/06/06 00:26:40;;;;;;;;;5.50;5.00;;;;;19.54;100.00;101451.25;5077110;28;45220;-79
2022/06/06 00:29:06;;;;;;;;;10.00;6.75;;;;;19.50;100.00;101442.44;5058011;28;45844;-80
2022/06/06 00:37:06;;;;;;;;;3.50;3.25;;;;;19.42;100.00;101436.19;5077947;28;45450;-79
2022/06/06 00:39:32;;;;;;;;;5.00;5.00;;;;;19.44;100.00;101434.44;5063482;28;46834;-79
2022/06/06 00:41:57;;;;;;;;;6.50;5.75;;;;;19.46;100.00;101432.72;5080059;28;45414;-80
2022/06/06 00:44:33;;;;;;;;;5.25;5.25;;;;;19.47;100.00;101431.88;5077071;27;45328;-79
2022/06/06 00:47:09;;;;;;;;;4.25;4.25;;;;;19.47;100.00;101427.53;5076272;27;45288;-79
2022/06/06 00:49:50;;;;;;;;;5.00;5.00;;;;;19.45;100.00;101412.56;5079814;27;45649;-79
2022/06/06 00:52:23;;;;;;;;;4.50;4.50;;;;;19.48;100.00;101423.16;5079397;28;45637;-80
2022/06/06 00:54:52;;;;;;;;;5.00;4.50;;;;;19.52;100.00;101426.72;5076684;28;45400;-80
2022/06/06 00:57:24;;;;;;;;;4.25;3.50;;;;;19.49;100.00;101417.03;5076678;27;45401;-80
2022/06/06 00:59:52;;;;;;;;;4.00;4.00;;;;;19.44;100.00;101411.72;5075569;28;45417;-78
2022/06/06 01:02:18;;;;;;;;;5.75;5.50;;;;;19.44;100.00;101414.34;5075997;28;45716;-79
2022/06/06 01:04:46;;;;;;;;;6.00;6.00;;;;;19.41;100.00;101416.91;5075698;27;45930;-79
2022/06/06 01:07:12;;;;;;;;;5.50;5.50;;;;;19.31;100.00;101409.72;5075870;28;45540;-81
2022/06/06 01:09:40;;;;;;;;;5.25;5.25;;;;;19.34;100.00;101417.66;5075243;28;45257;-82
2022/06/06 01:12:18;;;;;;;;;5.75;5.00;;;;;19.31;100.00;101409.72;5075556;28;45445;-80
2022/06/06 01:15:07;;;;;;;;;5.50;5.50;;;;;19.28;100.00;101407.91;5075706;28;45234;-83
2022/06/06 01:18:07;;;;;;;;;8.25;7.50;;;;;19.24;100.00;101400.84;5060909;28;45670;-82
2022/06/06 01:21:14;;;;;;;;;6.50;6.25;;;;;19.12;100.00;101398.88;5078535;28;45264;-82
2022/06/06 01:24:11;;;;;;;;;5.00;4.75;;;;;19.16;100.00;101419.09;5079416;28;45226;-83
2022/06/06 01:27:00;;;;;;;;;7.00;6.25;;;;;19.11;100.00;101397.09;5079580;28;45248;-83
2022/06/06 01:29:34;;;;;;;;;5.25;4.50;;;;;19.09;100.00;101397.94;5063441;28;45740;-80
2022/06/06 01:32:10;;;;;;;;;8.00;6.75;;;;;19.13;100.00;101394.50;5078978;28;46287;-79
2022/06/06 01:34:39;;;;;;;;;7.00;6.50;;;;;19.13;100.00;101403.28;5078991;28;45413;-79
2022/06/06 01:37:41;;;;;;;;;7.00;7.00;;;;;19.12;100.00;101398.88;5079023;27;45347;-79
2022/06/06 01:40:13;;;;;;;;;7.25;7.25;;;;;19.15;100.00;101408.53;5060401;27;45419;-80
2022/06/06 01:42:56;;;;;;;;;7.75;6.00;;;;;19.16;100.00;101412.94;5078225;28;46297;-78
2022/06/06 01:45:47;;;;;;;;;8.00;7.75;;;;;19.18;100.00;101411.22;5078727;28;45281;-79
2022/06/06 01:48:23;;;;;;;;;6.50;6.50;;;;;19.13;100.00;101418.13;5078649;28;45291;-79
2022/06/06 01:50:50;;;;;;;;;8.25;8.25;;;;;19.10;100.00;101413.69;5079239;28;45717;-79
2022/06/06 01:53:25;;;;;;;;;7.50;7.50;;;;;19.08;100.00;101411.91;5078837;28;45236;-79
2022/06/06 01:55:52;;;;;;;;;7.75;6.75;;;;;19.01;100.00;101406.53;5078300;27;45354;-78
2022/06/06 01:58:25;;;;;;;;;8.00;7.75;;;;;19.05;100.00;101409.22;5078991;28;45366;-78
2022/06/06 02:00:51;;;;;;;;;12.75;8.00;;;;;19.00;100.00;101407.41;5077909;27;45383;-81
2022/06/06 02:03:17;;;;;;;;;6.75;6.25;;;;;19.01;100.00;101411.78;5078711;28;46016;-81
2022/06/06 02:05:43;;;;;;;;;9.50;7.50;;;;;19.01;100.00;101410.91;5083361;28;45269;-83
2022/06/06 02:08:09;;;;;;;;;6.25;4.00;;;;;19.02;100.00;101407.44;5085164;27;45283;-82
2022/06/06 02:10:35;;;;;;;;;6.50;6.50;;;;;19.02;100.00;101407.44;5084111;28;45558;-82
2022/06/06 02:13:01;;;;;;;;;9.50;8.00;;;;;18.98;100.00;101398.63;5079008;28;45306;-82
2022/06/06 02:15:27;;;;;;;;;12.50;7.00;;;;;18.92;100.00;101403.69;5078564;27;45414;-82
2022/06/06 02:17:54;;;;;;;;;6.00;5.25;;;;;18.82;100.00;101396.50;5078326;28;45295;-82
2022/06/06 02:20:23;;;;;;;;;6.75;6.75;;;;;18.63;100.00;101382.09;5077939;28;45462;-78
2022/06/06 02:22:49;;;;;;;;;8.00;6.25;;;;;18.63;100.00;101385.63;5078232;28;45363;-80
2022/06/06 02:25:16;;;;;;;;;5.25;5.25;;;;;18.63;100.00;101400.47;5078446;27;45433;-79
2022/06/06 02:27:42;;;;;;;;;9.00;7.00;;;;;18.59;100.00;101401.28;5076878;28;45398;-82
2022/06/06 02:30:12;;;;;;;;;6.25;5.50;;;;;18.54;100.00;101402.06;5077937;27;45299;-79
2022/06/06 02:32:37;;;;;;;;;11.00;10.00;;;;;18.56;100.00;101410.84;5076529;27;46406;-80
2022/06/06 02:35:03;;;;;;;;;6.50;5.00;;;;;18.55;100.00;101401.19;5077534;28;45411;-80
2022/06/06 02:37:29;;;;;;;;;12.00;11.50;;;;;18.54;100.00;101394.19;5078131;27;45448;-80
2022/06/06 02:39:55;;;;;;;;;7.75;7.75;;;;;18.53;100.00;101396.78;5077851;27;45461;-80
2022/06/06 02:42:21;;;;;;;;;13.50;12.75;;;;;18.51;100.00;101395.84;5077541;28;45315;-81
2022/06/06 02:44:48;;;;;;;;;19.50;17.50;;;;;18.48;100.00;101401.03;5077872;28;45773;-80
2022/06/06 02:47:14;;;;;;;;;22.50;18.25;;;;;18.49;100.00;101415.91;5078510;28;45250;-80
2022/06/06 02:49:40;;;;;;;;;26.00;20.75;;;;;18.40;100.00;101416.63;5085721;28;45731;-80
2022/06/06 02:52:05;;;;;;;;;21.75;18.00;;;;;18.32;100.00;101412.91;5081581;28;45401;-81
2022/06/06 02:54:31;;;;;;;;;25.00;23.50;;;;;18.32;100.00;101410.28;5078953;28;45461;-78
2022/06/06 02:56:59;;;;;;;;;20.00;17.75;;;;;18.25;100.00;101394.44;5088300;28;45315;-78
2022/06/06 02:59:27;;;;;;;;;22.00;19.50;;;;;18.25;100.00;101396.16;5079458;28;45418;-81
2022/06/06 03:01:52;;;;;;;;;19.50;17.75;;;;;18.16;100.00;101380.22;5077255;28;45322;-81
2022/06/06 03:04:19;;;;;;;;;18.25;16.25;;;;;18.21;100.00;101391.72;5077792;27;45277;-82
2022/06/06 03:07:22;;;;;;;;;16.75;16.50;;;;;18.21;100.00;101394.34;5077728;28;45379;-79
2022/06/06 03:10:07;;;;;;;;;18.00;15.25;;;;;18.19;100.00;101386.47;5077783;27;45400;-80
2022/06/06 03:13:02;;;;;;;;;12.25;8.00;;;;;18.19;100.00;101391.69;5077235;28;46505;-79
2022/06/06 03:22:23;;;;;;;;;11.50;9.25;;;;;18.17;100.00;101397.72;5077140;28;45289;-78
2022/06/06 03:25:29;;;;;;;;;11.25;10.75;;;;;18.13;100.00;101401.16;5077336;28;45374;-79
2022/06/06 03:28:21;;;;;;;;;11.50;11.50;;;;;18.12;100.00;101395.00;5077016;28;46171;-78
2022/06/06 03:31:07;;;;;;;;;6.00;6.00;;;;;18.08;100.00;101406.28;5061332;28;45228;-79
2022/06/06 03:33:56;;;;;;;;;11.25;10.00;;;;;18.05;100.00;101401.84;5085152;28;45358;-80
2022/06/06 03:36:27;;;;;;;;;12.75;12.00;;;;;18.05;100.00;101403.59;5077674;28;45520;-80
2022/06/06 03:39:07;;;;;;;;;10.75;8.25;;;;;18.07;100.00;101401.88;5076690;28;45739;-79
2022/06/06 03:42:00;;;;;;;;;8.00;8.00;;;;;17.97;100.00;101392.03;5077072;28;45271;-78
2022/06/06 03:44:50;;;;;;;;;6.00;5.00;;;;;18.05;100.00;101408.81;5077156;27;45418;-78
2022/06/06 03:47:27;;;;;;;;;6.25;6.25;;;;;17.97;100.00;101398.16;5076963;27;46211;-80
2022/06/06 03:50:08;;;;;;;;;5.00;5.00;;;;;18.03;100.00;101411.38;5076701;28;45371;-80
2022/06/06 03:53:20;;;;;;;;;7.00;5.00;;;;;18.00;100.00;101407.81;5058438;28;45246;-80
2022/06/06 03:56:17;;;;;;;;;6.25;4.25;;;;;17.99;100.00;101414.81;5072510;27;45470;-80
2022/06/06 03:58:44;;;;;;;;;7.00;5.25;;;;;17.93;100.00;101404.13;5076849;28;45644;-80
2022/06/06 04:01:13;;;;;;;;;6.75;5.00;;;;;18.02;100.00;101413.97;5076394;28;45328;-79
2022/06/06 04:03:38;;;;;;;;;4.00;3.75;;;;;18.00;100.00;101418.28;5076740;28;45373;-79
2022/06/06 04:06:05;;;;;;;;;4.50;4.50;;;;;17.94;100.00;101411.13;5076658;27;45584;-80
2022/06/06 04:08:34;;;;;;;;;5.00;5.00;;;;;18.00;100.00;101416.56;5058271;28;48034;-79
2022/06/06 04:11:30;;;;;;;;;6.75;4.00;;;;;18.00;100.00;101420.91;5077146;27;45742;-81
2022/06/06 04:14:08;;;;;;;;;5.50;4.50;;;;;18.01;100.00;101420.06;5080503;27;45386;-80
2022/06/06 04:16:52;;;;;;;;;5.00;4.00;;;;;17.98;100.00;101431.38;5079509;28;45454;-79
2022/06/06 04:19:50;;;;;;;;;5.00;4.00;;;;;18.01;100.00;101425.31;5076936;28;45502;-81
2022/06/06 04:22:38;;;;;;;;;4.25;4.00;;;;;18.00;100.00;101429.69;5077060;28;45273;-80
2022/06/06 04:25:16;;;;;;;;;4.00;4.00;;;;;18.01;100.00;101428.84;5076390;28;45174;-81
2022/06/06 04:27:59;;;;;;;;;7.00;5.50;;;;;18.02;100.00;101429.72;5076535;28;45339;-79
2022/06/06 04:30:43;;;;;;;;;4.00;3.00;;;;;18.00;100.00;101434.91;5057178;28;45457;-80
2022/06/06 04:33:19;;;;;;;;;5.00;3.25;;;;;17.93;100.00;101436.47;5075156;28;45729;-80
2022/06/06 04:36:10;;;;;;;;;5.25;5.25;;;;;17.97;100.00;101432.22;5076604;28;45320;-80
2022/06/06 04:39:04;;;;;;;;;2.25;2.25;;;;;17.94;100.00;101434.72;5076409;28;45357;-79
2022/06/06 04:41:39;;;;;;;;;3.00;3.00;;;;;17.82;100.00;101422.22;5055830;28;46599;-82
2022/06/06 04:44:36;;;;;;;;;4.75;3.50;;;;;17.76;100.00;101420.34;5055695;28;45098;-82
2022/06/06 04:47:07;;;;;;;;;4.25;3.50;;;;;17.79;100.00;101428.28;5055419;28;45391;-82
2022/06/06 04:49:33;;;;;;;;;4.00;3.00;;;;;17.78;100.00;101422.97;5075823;28;45316;-81
2022/06/06 04:52:01;;;;;;;;;6.75;4.00;;;;;17.80;100.00;101429.16;5078118;27;45538;-81
2022/06/06 04:54:29;;;;;;;;;4.50;2.50;;;;;17.64;100.00;101401.69;5079461;28;45493;-81
2022/06/06 04:56:58;;;;;;;;;3.00;3.00;;;;;17.70;100.00;101428.03;5079965;27;45305;-81
2022/06/06 04:59:25;;;;;;;;;2.50;2.50;;;;;17.63;100.00;101429.63;5085079;28;45570;-82
2022/06/06 05:01:51;;;;;;;;;2.00;2.00;;;;;17.58;100.00;101428.59;5080245;28;45405;-81
2022/06/06 05:04:16;;;;;;;;;3.00;3.00;;;;;17.54;100.00;101423.25;5088217;28;45322;-82
2022/06/06 05:06:42;;;;;;;;;2.00;2.00;;;;;17.58;100.00;101427.72;5079765;28;45326;-82
2022/06/06 05:09:13;;;;;;;;;2.50;2.50;;;;;17.56;100.00;101437.28;5079236;27;45570;-81
2022/06/06 05:12:20;;;;;;;;;3.75;2.75;;;;;17.57;100.00;101437.31;5061068;28;46743;-80
2022/06/06 05:15:19;;;;;;;;;2.50;2.50;;;;;17.58;100.00;101435.59;5076197;28;45419;-81
2022/06/06 05:18:08;;;;;;;;;2.00;2.00;;;;;17.56;100.00;101430.28;5079636;28;45236;-81
2022/06/06 05:20:56;;;;;;;;;1.00;1.00;;;;;17.49;100.00;101431.00;5078980;27;45459;-81
2022/06/06 05:23:36;;;;;;;;;5.00;2.00;;;;;17.48;100.00;101431.81;5079120;27;45446;-81
2022/06/06 05:26:13;;;;;;;;;2.00;2.00;;;;;17.45;100.00;101434.34;5078945;27;45742;-81
2022/06/06 05:29:11;;;;;;;;;1.25;1.00;;;;;17.46;100.00;101433.50;5079032;28;45453;-82
2022/06/06 05:32:07;;;;;;;;;3.00;2.75;;;;;17.40;100.00;101436.84;5046748;28;45410;-82
2022/06/06 05:34:41;;;;;;;;;4.50;2.50;;;;;17.41;100.00;101443.88;5058501;28;46578;-80
2022/06/06 05:37:44;;;;;;;;;2.00;2.00;;;;;17.41;100.00;101446.47;5058627;28;45831;-81
2022/06/06 05:40:12;;;;;;;;;3.00;1.00;;;;;17.44;100.00;101436.09;5064766;28;45384;-81
2022/06/06 05:43:05;;;;;;;;;1.75;1.75;;;;;17.48;100.00;101442.31;5064746;28;45431;-80
2022/06/06 05:45:49;;;;;;;;;1.00;1.00;;;;;17.49;100.00;101439.72;5059486;28;46563;-81
2022/06/06 05:48:18;;;;;;;;;0.50;0.50;;;;;17.48;100.00;101437.97;5058535;28;45453;-79
2022/06/06 05:51:01;;;;;;;;;2.00;1.00;;;;;17.51;100.00;101442.38;5058547;28;45309;-80
2022/06/06 05:53:39;;;;;;;;;2.00;1.00;;;;;17.47;100.00;101441.44;5058711;28;45444;-80
2022/06/06 05:56:23;;;;;;;;;2.75;2.00;;;;;17.43;100.00;101436.06;5057853;28;45502;-81
2022/06/06 05:59:10;;;;;;;;;1.00;1.00;;;;;17.38;100.00;101440.28;5058388;28;45385;-82
2022/06/06 06:01:54;;;;;;;;;1.00;1.00;;;;;17.41;100.00;101445.59;5058088;28;45434;-82
2022/06/06 06:04:44;;;;;;;;;3.00;2.00;;;;;17.38;100.00;101446.41;5058899;28;45178;-82
2022/06/06 06:08:05;;;;;;;;;1.25;1.00;;;;;17.34;100.00;101452.41;5059083;28;45961;-81
2022/06/06 06:10:57;;;;;;;;;2.50;1.75;;;;;17.29;100.00;101461.84;5077214;28;45430;-80
2022/06/06 06:13:44;;;;;;;;;3.00;2.00;;;;;17.29;100.00;101460.13;5078450;28;45284;-78
2022/06/06 06:16:11;;;;;;;;;1.00;1.00;;;;;17.24;100.00;101466.09;5078499;28;45220;-81
2022/06/06 06:18:40;;;;;;;;;0.50;0.50;;;;;17.23;100.00;101462.56;5081346;27;46117;-82
2022/06/06 06:21:12;;;;;;;;;1.25;1.25;;;;;17.25;100.00;101471.34;5082093;27;45362;-81
2022/06/06 06:23:42;;;;;;;;;0.00;0.00;;;;;17.27;100.00;101469.66;5088115;27;45230;-82
2022/06/06 06:26:09;;;;;;;;;5.75;2.50;;;;;17.32;100.00;101467.19;5082965;28;45416;-82
2022/06/06 06:28:37;;;;;;;;;1.25;1.25;;;;;17.33;100.00;101464.59;5069670;28;45703;-80
2022/06/06 06:31:20;;;;;;;;;1.00;1.00;;;;;17.34;100.00;101465.50;5078558;28;45238;-81
2022/06/06 06:33:57;;;;;;;;;1.00;1.00;;;;;17.41;100.00;101466.56;5059798;28;45316;-80
2022/06/06 06:36:46;;;;;;;;;2.00;2.00;;;;;17.45;100.00;101463.16;5060125;28;45276;-80
2022/06/06 06:39:43;;;;;;;;;1.00;1.00;;;;;17.55;100.00;101473.03;5059105;28;45516;-80
2022/06/06 06:42:30;;;;;;;;;3.50;2.00;;;;;17.55;100.00;101483.50;5076838;28;45724;-79
2022/06/06 06:45:08;;;;;;;;;2.00;2.00;;;;;17.51;100.00;101478.13;5077499;28;45259;-80
2022/06/06 06:47:37;;;;;;;;;2.00;1.00;;;;;17.54;100.00;101488.69;5078630;28;45820;-81
2022/06/06 06:50:26;;;;;;;;;2.50;2.50;;;;;17.51;100.00;101472.91;5077369;27;45573;-81
2022/06/06 06:53:13;;;;;;;;;1.75;1.00;;;;;17.52;100.00;101493.91;5057964;28;45866;-79
2022/06/06 06:55:51;;;;;;;;;2.25;2.00;;;;;17.48;100.00;101478.94;5077018;27;46010;-80
2022/06/06 06:58:20;;;;;;;;;1.75;1.50;;;;;17.50;100.00;101490.34;5059046;27;45382;-79
2022/06/06 07:00:52;;;;;;;;;2.00;2.00;;;;;17.49;100.00;101485.97;5089074;27;46229;-78
2022/06/06 07:09:57;;;;;;;;;2.25;1.50;;;;;17.49;100.00;101485.97;5088859;28;45469;-77
2022/06/06 07:12:26;;;;;;;;;1.00;1.00;;;;;17.50;100.00;101485.13;5056675;27;47026;-78
2022/06/06 07:15:02;;;;;;;;;3.50;1.00;;;;;17.48;100.00;101486.81;5077719;28;45251;-81
2022/06/06 07:17:33;;;;;;;;;1.00;1.00;;;;;17.47;100.00;101475.47;5088394;27;45270;-78
2022/06/06 07:20:09;;;;;;;;;1.50;1.50;;;;;17.62;100.00;101485.47;5098745;27;45185;-84
2022/06/06 07:25:25;;;;;;;;;1.00;1.00;;;;;17.73;100.00;101472.63;5098057;27;45247;-80
2022/06/06 07:27:51;;;;;;;;;2.00;2.00;;;;;17.81;100.00;101477.19;5078514;27;45545;-80
2022/06/06 07:30:21;;;;;;;;;1.00;0.75;;;;;17.84;100.00;101467.69;5056910;28;45561;-91
2022/06/06 07:32:53;;;;;;;;;0.50;0.50;;;;;17.91;100.00;101464.34;5076920;27;45702;-88
2022/06/06 07:36:03;;;;;;;;;2.75;1.50;;;;;18.04;100.00;101475.19;5078652;28;45647;-84
2022/06/06 07:39:03;;;;;;;;;1.75;1.75;;;;;18.14;100.00;101478.94;5077342;27;45362;-81
2022/06/06 07:41:44;;;;;;;;;1.00;1.00;;;;;18.11;100.00;101484.94;5077100;28;45244;-80
2022/06/06 07:44:34;;;;;;;;;1.00;1.00;;;;;18.07;100.00;101472.66;5076234;28;46357;-82
2022/06/06 07:47:18;;;;;;;;;2.00;2.00;;;;;18.06;100.00;101471.75;5075800;27;45390;-77
2022/06/06 07:49:53;;;;;;;;;1.50;1.25;;;;;18.02;100.00;101469.91;5080988;28;45351;-77
2022/06/06 07:53:20;;;;;;;;;0.75;0.75;;;;;18.04;100.00;101478.66;5080357;27;45397;-82
2022/06/06 07:56:35;;;;;;;;;1.50;0.50;;;;;18.02;100.00;101485.63;5016959;28;46514;-87
2022/06/06 07:59:20;;;;;;;;;0.00;0.00;;;;;17.79;100.00;101448.31;5060959;28;45718;-82
2022/06/06 08:02:00;;;;;;;;;0.75;0.75;;;;;17.97;100.00;101476.75;5077504;28;45292;-83
2022/06/06 08:04:40;;;;;;;;;0.75;0.75;;;;;17.96;100.00;101469.72;5076583;28;45351;-87
2022/06/06 08:07:31;;;;;;;;;2.00;1.00;;;;;17.88;100.00;101456.41;5056865;28;45378;-82
2022/06/06 08:10:16;;;;;;;;;1.25;1.25;;;;;17.94;100.00;101463.53;5068135;27;45398;-79
2022/06/06 08:13:06;;;;;;;;;1.25;1.25;;;;;17.99;100.00;101471.53;5078253;27;45414;-86
2022/06/06 08:15:44;;;;;;;;;1.00;1.00;;;;;18.02;100.00;101471.63;5078106;27;45274;-77
2022/06/06 08:18:34;;;;;;;;;1.00;1.00;;;;;18.06;100.00;101476.97;5054404;28;45523;-80
2022/06/06 08:21:20;;;;;;;;;1.00;1.00;;;;;18.14;100.00;101473.69;5069082;27;45797;-78
2022/06/06 08:23:50;;;;;;;;;1.50;1.00;;;;;18.18;100.00;101468.53;5073875;27;45446;-79
2022/06/06 08:26:16;;;;;;;;;1.00;1.00;;;;;18.16;99.84;101464.09;5077639;27;45660;-78
2022/06/06 08:28:45;;;;;;;;;2.50;1.00;;;;;18.19;98.19;101454.59;5078924;27;45446;-79
2022/06/06 08:31:11;;;;;;;;;1.00;1.00;;;;;18.28;97.96;101458.28;5082572;27;45287;-78
2022/06/06 08:33:36;;;;;;;;;2.00;1.00;;;;;18.36;98.89;101464.56;5084171;28;45265;-76
2022/06/06 08:36:40;;;;;;;;;1.00;1.00;;;;;18.43;96.89;101465.59;5060555;28;45551;-79
2022/06/06 08:39:34;;;;;;;;;1.00;1.00;;;;;18.41;94.24;101453.34;5078661;27;46443;-78
2022/06/06 08:42:03;;;;;;;;;0.50;0.50;;;;;18.46;94.95;101449.97;5078552;27;45669;-79
2022/06/06 08:44:52;;;;;;;;;0.00;0.00;;;;;18.54;92.75;101449.25;5060460;28;45511;-78
2022/06/06 08:47:31;;;;;;;;;1.50;0.00;;;;;18.62;89.84;101459.06;5078517;27;45514;-78
2022/06/06 08:53:43;;;;;;;;;0.00;0.00;;;;;18.65;82.80;101456.47;5077917;28;45365;-79
2022/06/06 08:56:36;;;;;;;;;1.25;0.75;;;;;18.63;85.73;101453.81;5077858;28;45321;-78
2022/06/06 08:59:28;;;;;;;;;1.00;1.00;;;;;18.67;85.43;101444.28;5078792;27;45239;-76
2022/06/06 09:02:15;;;;;;;;;2.00;2.00;;;;;18.75;85.47;101447.94;5077447;27;46400;-78
2022/06/06 09:04:59;;;;;;;;;0.25;0.25;;;;;18.82;84.28;101454.22;5077427;27;45211;-79
2022/06/06 09:07:55;;;;;;;;;1.00;0.25;;;;;18.82;81.97;101451.59;5078471;27;45354;-78
2022/06/06 09:10:39;;;;;;;;;0.00;0.00;;;;;18.90;81.50;101455.25;5078757;27;45618;-77
2022/06/06 09:13:18;;;;;;;;;1.75;0.25;;;;;18.96;78.37;101458.06;5078029;27;46172;-79
2022/06/06 09:16:03;;;;;;;;;0.50;0.50;;;;;19.01;79.14;101451.13;5060478;28;46046;-77
2022/06/06 09:19:06;;;;;;;;;1.00;1.00;;;;;19.14;79.19;101454.00;5045109;28;45687;-76
2022/06/06 09:21:54;;;;;;;;;0.25;0.25;;;;;19.22;76.35;101468.16;5057904;28;45483;-77
2022/06/06 09:24:53;;;;;;;;;1.00;1.00;;;;;19.22;76.40;101449.78;5057999;28;46034;-77
2022/06/06 09:28:05;;;;;;;;;1.00;0.00;;;;;19.24;74.37;101460.34;5057490;28;45709;-78
2022/06/06 09:30:43;;;;;;;;;0.50;0.00;;;;;19.33;74.78;101447.38;5057842;28;45320;-77
2022/06/06 09:33:37;;;;;;;;;0.00;0.00;;;;;19.43;73.10;101448.47;5039717;28;45552;-79
2022/06/06 09:36:38;;;;;;;;;0.00;0.00;;;;;19.47;73.04;101439.75;5057319;28;45483;-77
2022/06/06 09:39:40;;;;;;;;;2.50;1.00;;;;;19.53;72.59;101441.59;5057057;28;45597;-77
2022/06/06 09:42:28;;;;;;;;;0.00;0.00;;;;;19.54;72.81;101446.91;5057195;28;45362;-78
2022/06/06 09:45:02;;;;;;;;;0.00;0.00;;;;;19.65;71.05;101442.69;5058516;28;45609;-79
2022/06/06 09:47:39;;;;;;;;;0.50;0.50;;;;;19.73;70.72;101428.84;5056766;28;46131;-80
2022/06/06 09:50:26;;;;;;;;;0.00;0.00;;;;;19.77;68.41;101431.53;5038166;28;45603;-80
2022/06/06 09:52:55;;;;;;;;;1.00;0.00;;;;;19.83;69.40;101440.38;5057650;28;45417;-80
2022/06/06 09:59:01;;;;;;;;;1.00;1.00;;;;;19.76;69.99;101440.28;5057075;28;45888;-79
2022/06/06 10:01:45;;;;;;;;;1.00;1.00;;;;;19.75;69.47;101429.75;5044825;28;45456;-78
2022/06/06 10:04:36;;;;;;;;;0.00;0.00;;;;;19.76;68.71;101437.66;5060056;28;45410;-78
2022/06/06 10:07:26;;;;;;;;;0.00;0.00;;;;;19.82;67.53;101428.97;5060332;28;45336;-78
2022/06/06 10:10:16;;;;;;;;;1.00;0.00;;;;;19.87;67.87;101435.22;5038143;28;47145;-77
2022/06/06 10:13:05;;;;;;;;;1.00;0.00;;;;;19.88;67.83;101433.50;5056560;28;45252;-79
2022/06/06 10:16:01;;;;;;;;;0.00;0.00;;;;;19.97;66.56;101432.75;5057177;28;45344;-77
2022/06/06 10:18:27;;;;;;;;;0.25;0.00;;;;;20.04;65.12;101435.47;5053451;28;45323;-78
2022/06/06 10:21:22;;;;;;;;;0.75;0.75;;;;;20.04;64.51;101435.47;5056251;28;45434;-77
2022/06/06 10:24:07;;;;;;;;;0.00;0.00;;;;;20.01;63.54;101440.72;5056515;28;45363;-79
2022/06/06 10:26:54;;;;;;;;;2.00;0.00;;;;;19.96;63.33;101445.00;5038245;28;45373;-80
2022/06/06 10:32:38;;;;;;;;;1.00;1.00;;;;;20.01;65.34;101443.34;5059886;28;45543;-79
2022/06/06 10:35:25;;;;;;;;;0.50;0.50;;;;;20.09;63.95;101441.72;5076229;28;45794;-79
2022/06/06 10:38:18;;;;;;;;;0.00;0.00;;;;;20.09;62.91;101440.81;5076752;28;45341;-79
2022/06/06 10:41:17;;;;;;;;;0.00;0.00;;;;;19.98;63.81;101431.91;5076846;27;45970;-79
2022/06/06 10:44:12;;;;;;;;;0.00;0.00;;;;;19.96;65.59;101442.38;5076479;28;45386;-78
2022/06/06 10:46:49;;;;;;;;;0.00;0.00;;;;;20.03;65.57;101430.22;5080497;28;45456;-79
2022/06/06 10:49:21;;;;;;;;;2.00;1.00;;;;;20.15;66.14;101430.41;5081190;27;45287;-79
2022/06/06 10:51:58;;;;;;;;;1.50;1.00;;;;;20.32;65.42;101433.28;5076663;28;45693;-76
2022/06/06 10:54:34;;;;;;;;;0.25;0.25;;;;;20.37;65.45;101434.22;5076595;28;46201;-77
2022/06/06 10:57:41;;;;;;;;;1.00;1.00;;;;;20.33;64.65;101428.91;5076529;28;45165;-79
2022/06/06 11:00:22;;;;;;;;;0.75;0.75;;;;;20.28;63.55;101428.84;5053480;28;45325;-78
2022/06/06 11:02:57;;;;;;;;;0.00;0.00;;;;;20.31;63.33;101428.00;5055830;28;45660;-78
2022/06/06 11:05:41;;;;;;;;;0.00;0.00;;;;;20.39;62.95;101421.13;5056098;28;45355;-78
2022/06/06 11:08:34;;;;;;;;;1.00;1.00;;;;;20.45;62.87;101426.44;5055847;28;45351;-78
2022/06/06 11:11:32;;;;;;;;;0.00;0.00;;;;;20.42;63.08;101432.56;5055941;28;45452;-78
2022/06/06 11:14:29;;;;;;;;;0.00;0.00;;;;;20.36;63.52;101427.19;5055835;28;45459;-78
2022/06/06 11:17:19;;;;;;;;;1.00;0.00;;;;;20.30;62.98;101426.25;5055720;28;46381;-78
2022/06/06 11:19:54;;;;;;;;;1.00;1.00;;;;;20.25;62.73;101436.66;5056156;28;45727;-80
2022/06/06 11:22:40;;;;;;;;;0.00;0.00;;;;;20.23;62.66;101422.66;5056974;28;45384;-78
2022/06/06 11:25:06;;;;;;;;;0.25;0.25;;;;;20.27;62.62;101434.94;5055884;28;45323;-77
2022/06/06 11:27:59;;;;;;;;;1.00;0.00;;;;;20.28;62.22;101426.22;5055967;28;45473;-79
2022/06/06 11:30:28;;;;;;;;;0.00;0.00;;;;;20.32;62.81;101422.78;5059929;28;45296;-76
2022/06/06 11:33:27;;;;;;;;;0.00;0.00;;;;;20.37;62.56;101417.56;5058371;28;45288;-76
2022/06/06 11:36:02;;;;;;;;;3.00;1.00;;;;;20.46;62.69;101422.97;5041684;28;45201;-77
2022/06/06 11:38:42;;;;;;;;;1.75;0.75;;;;;20.52;61.66;101420.41;5053881;28;46378;-77
2022/06/06 11:41:21;;;;;;;;;0.00;0.00;;;;;20.60;61.88;101417.00;5059781;28;45270;-77
2022/06/06 11:44:06;;;;;;;;;1.00;0.75;;;;;20.66;61.40;101431.13;5076440;28;45223;-76
2022/06/06 11:46:44;;;;;;;;;2.00;2.00;;;;;20.72;61.96;101422.44;5057506;28;45240;-77
2022/06/06 11:49:30;;;;;;;;;0.00;0.00;;;;;20.81;60.75;101432.19;5075573;28;45636;-77
2022/06/06 11:52:21;;;;;;;;;0.25;0.25;;;;;20.82;59.43;101426.06;5074917;27;45717;-77
2022/06/06 11:55:01;;;;;;;;;2.25;0.00;;;;;20.79;61.03;101428.66;5075507;28;45409;-78
2022/06/06 11:58:04;;;;;;;;;2.75;0.00;;;;;20.81;61.03;101417.31;5075543;28;45351;-77
2022/06/06 12:00:55;;;;;;;;;0.75;0.75;;;;;20.95;61.04;101425.38;5074511;27;45482;-78
2022/06/06 12:03:53;;;;;;;;;0.00;0.00;;;;;21.14;59.71;101418.56;5056973;28;45147;-77
2022/06/06 12:06:37;;;;;;;;;0.75;0.75;;;;;21.33;58.97;101408.22;5075387;27;45203;-78
2022/06/06 12:09:41;;;;;;;;;0.00;0.00;;;;;21.40;57.38;101414.41;5057024;28;45625;-78
2022/06/06 12:12:27;;;;;;;;;0.75;0.00;;;;;21.29;53.98;101419.56;5056413;28;47734;-78
2022/06/06 12:15:18;;;;;;;;;1.00;0.00;;;;;21.23;55.84;101415.13;5074904;27;45531;-78
2022/06/06 12:18:21;;;;;;;;;0.00;0.00;;;;;21.16;57.05;101398.41;5075564;27;45324;-78
2022/06/06 12:21:34;;;;;;;;;1.00;0.50;;;;;21.30;58.02;101401.16;5081338;28;45280;-78
2022/06/06 12:24:06;;;;;;;;;0.75;0.75;;;;;21.40;57.41;101398.63;5064175;27;46375;-79
2022/06/06 12:27:09;;;;;;;;;0.00;0.00;;;;;21.61;56.77;101411.13;5075486;27;45658;-78
2022/06/06 12:29:59;;;;;;;;;0.00;0.00;;;;;21.69;56.24;101419.09;5074746;28;45386;-79
2022/06/06 12:32:49;;;;;;;;;0.25;0.25;;;;;21.60;54.46;101402.34;5074601;28;45552;-76
2022/06/06 12:35:37;;;;;;;;;0.00;0.00;;;;;21.52;55.03;101390.81;5055519;28;47756;-78
2022/06/06 12:38:10;;;;;;;;;0.00;0.00;;;;;21.50;56.16;101387.28;5074438;28;45259;-77
2022/06/06 12:40:57;;;;;;;;;1.50;0.25;;;;;21.60;56.40;101378.63;5074136;27;45313;-78
2022/06/06 12:43:55;;;;;;;;;2.00;0.00;;;;;21.73;55.55;101382.22;5075052;28;45323;-77
2022/06/06 12:46:42;;;;;;;;;0.00;0.00;;;;;21.87;56.61;101387.59;5042765;28;46404;-79
2022/06/06 12:49:28;;;;;;;;;0.00;0.00;;;;;22.09;54.94;101390.38;5073900;28;45457;-79
2022/06/06 12:52:24;;;;;;;;;1.00;1.00;;;;;22.17;53.87;101371.97;5042908;28;45394;-77
2022/06/06 12:58:17;;;;;;;;;0.00;0.00;;;;;22.44;50.25;101373.91;5074147;28;45808;-79